PST,Max TemperatureF,Mean TemperatureF,Min TemperatureF,Max Dew PointF,MeanDew PointF,Min DewpointF,Max Humidity, Mean Humidity, Min Humidity, Max Sea Level PressureIn, Mean Sea Level PressureIn, Min Sea Level PressureIn, Max VisibilityMiles, Mean VisibilityMiles, Min VisibilityMiles, Max Wind SpeedMPH, Mean Wind SpeedMPH, Max Gust SpeedMPH,PrecipitationIn, CloudCover, Events, WindDirDegrees
2012-11-1,70,66,62,54,53,52,72,64,54,30.03,29.99,29.95,10,10,9,10,4,,0.00,6,,298
2012-11-2,72,67,61,55,52,49,81,60,49,30.00,29.97,29.93,10,10,9,13,3,,0.00,4,,318
2012-11-3,72,64,57,59,56,51,84,75,61,30.04,30.00,29.97,10,8,4,13,3,,0.00,3,,319
2012-11-4,90,74,59,59,47,35,87,48,16,30.06,30.01,29.97,10,8,3,15,4,,0.00,1,,344
2012-11-5,90,76,61,62,50,27,83,55,11,30.05,30.02,29.99,10,10,8,9,2,,0.00,0,,185
2012-11-6,70,65,60,63,59,52,96,86,75,30.09,30.05,30.01,9,3,0,7,3,,0.00,5,Fog,176
2012-11-7,70,65,60,57,56,55,83,74,63,30.06,30.01,29.96,10,8,3,13,4,22,0.00,5,,319
2012-11-8,68,64,60,57,56,53,88,73,65,30.02,29.95,29.91,10,8,3,13,6,17,0.13,7,Rain,259
2012-11-9,66,63,60,50,46,42,63,54,46,29.97,29.94,29.91,10,9,5,21,13,28,0.02,6,Rain,298
2012-11-10,66,62,55,44,41,37,64,47,34,30.15,30.06,29.97,10,9,8,22,16,26,0.00,4,Rain,306
2012-11-11,66,57,48,43,40,34,71,54,30,30.28,30.22,30.16,10,10,9,15,5,,0.00,0,,10
2012-11-12,71,60,48,45,37,22,67,47,16,30.23,30.16,30.09,10,10,8,16,4,,0.00,0,,341
2012-11-13,75,62,50,55,38,17,84,51,11,30.12,30.04,29.96,10,9,7,14,3,,0.00,1,,328
2012-11-14,71,60,50,57,51,31,94,75,23,30.07,30.03,29.98,10,7,0,9,1,,0.01,5,Fog,234
2012-11-15,68,62,57,57,52,42,94,72,40,30.12,30.06,30.02,10,6,0,15,2,,0.00,7,Fog-Rain,52
2012-11-16,73,64,55,57,47,33,84,59,23,30.11,30.07,30.01,10,9,8,8,2,,0.00,4,,219
2012-11-17,73,66,59,59,55,52,84,73,51,30.11,30.07,30.04,10,8,7,7,1,,0.00,5,,177
2012-11-18,69,65,59,60,56,53,90,76,65,30.18,30.12,30.07,10,9,5,14,3,,0.00,5,Rain,335
2012-11-19,72,63,54,57,54,49,86,74,48,30.24,30.18,30.15,10,10,9,15,4,,0.00,2,,339
2012-11-20,68,61,54,56,54,50,89,77,61,30.15,30.10,30.04,10,8,6,14,3,,0.00,2,,317
2012-11-21,66,60,54,55,53,50,88,76,61,30.12,30.07,30.03,10,8,3,8,2,,0.00,5,,307
2012-11-22,66,60,55,55,54,52,88,79,65,30.12,30.08,30.04,10,7,2,8,2,,0.00,2,,309
2012-11-23,66,60,55,56,54,52,90,82,61,30.15,30.10,30.06,10,3,0,10,4,,0.00,5,Fog,344
2012-11-24,73,64,55,57,54,45,94,78,37,30.07,30.00,29.93,10,5,0,13,7,,0.00,4,Fog,335
2012-11-25,63,60,57,55,54,52,88,80,72,29.98,29.94,29.89,10,6,0,6,2,,0.00,7,Fog,182
2012-11-26,64,60,57,53,51,50,81,71,61,30.09,30.04,29.99,10,8,5,9,4,,0.00,6,,290
2012-11-27,66,60,55,55,53,50,88,75,63,30.17,30.11,30.04,10,8,6,12,4,,0.00,6,,332
2012-11-28,66,64,61,54,52,51,75,68,59,30.21,30.16,30.11,10,9,4,12,3,,0.00,5,,205
2012-11-29,69,65,61,61,56,50,94,75,63,30.22,30.17,30.14,10,8,0,12,4,,0.00,6,Fog-Rain,95
2012-11-30,69,66,62,63,61,59,94,87,73,30.16,30.13,30.09,8,5,1,7,2,,0.06,7,Rain,191